This is the latest recevied weather packets stored in our database for station/object AK6OS. If no packets are shown the sender has not sent any weather packets the latest 10 day(s).
| Time | Temp. | Humidity | Pressure | Rain* | Wind** | Luminosity | Snow |
|---|---|---|---|---|---|---|---|
| 1777532118 | 12.22° C | 91% | 1017.4 hPa | 0 mm | - | 0 W/m² | - |
| 1777530919 | 12.78° C | 91% | 1017.5 hPa | 0 mm | - | 0 W/m² | - |
| 1777525517 | 13.33° C | 88% | 1018.2 hPa | 0 mm | - | 0 W/m² | - |
| 1777524918 | 13.89° C | 87% | 1018.1 hPa | 0 mm | - | 0 W/m² | - |
| 1777517117 | 16.67° C | 72% | 1016.7 hPa | 0 mm | - | 7 W/m² | - |
| 1777514717 | 19.44° C | 60% | 1016.2 hPa | 0 mm | - | 62 W/m² | - |
| 1777512938 | 21.11° C | 57% | 1016.1 hPa | 0 mm | - | 136 W/m² | - |
| 1777509915 | 22.78° C | 54% | 1016 hPa | 0 mm | - | 307 W/m² | - |
| 1777506936 | 23.33° C | 52% | 1015.8 hPa | 0 mm | - | 482 W/m² | - |
| 1777506337 | 23.89° C | 49% | 1015.8 hPa | 0 mm | - | 515 W/m² | - |
| 1777504520 | 23.89° C | 50% | 1016.1 hPa | 0 mm | - | 612 W/m² | - |
| 1777503337 | 23.33° C | 50% | 1016.3 hPa | 0 mm | - | 673 W/m² | - |
| 1777502717 | 23.33° C | 52% | 1016.3 hPa | 0 mm | - | 702 W/m² | - |
| 1777497316 | 23.33° C | 52% | 1017 hPa | 0 mm | - | 893 W/m² | - |
| 1777494317 | 21.11° C | 62% | 1017.4 hPa | 0 mm | - | 942 W/m² | - |
| 1777493117 | 20.56° C | 65% | 1017.7 hPa | 0 mm | - | 947 W/m² | - |
| 1777492518 | 20.56° C | 64% | 1017.7 hPa | 0 mm | - | 947 W/m² | - |
| 1777491937 | 21.11° C | 64% | 1017.8 hPa | 0 mm | - | 943 W/m² | - |
| 1777491318 | 21.11° C | 63% | 1018 hPa | 0 mm | - | 937 W/m² | - |
| 1777490119 | 21.11° C | 62% | 1018.2 hPa | 0 mm | - | 924 W/m² | - |
| 1777488918 | 21.11° C | 63% | 1018.4 hPa | 0 mm | - | 901 W/m² | - |
| 1777487715 | 21.11° C | 64% | 1018.6 hPa | 0 mm | - | 873 W/m² | - |
| 1777486516 | 21.11° C | 62% | 1018.6 hPa | 0 mm | - | 839 W/m² | - |
| 1777485916 | 20.56° C | 61% | 1018.7 hPa | 0 mm | - | 816 W/m² | - |
| 1777482338 | 18.33° C | 71% | 1018.9 hPa | 0 mm | - | 670 W/m² | - |
* Rain latest hour (hover to see other rain measurements)
** Current wind speed in m/s (hover to see current wind gust speed)